createdAt,value
2018-06-04T00:00:34.323Z,17.27
2018-06-04T00:03:02.023Z,17.22
2018-06-04T00:05:29.676Z,17.20
2018-06-04T00:07:57.436Z,17.25
2018-06-04T00:10:25.115Z,17.23
2018-06-04T00:12:52.803Z,17.12
2018-06-04T00:15:20.483Z,17.04
2018-06-04T00:17:48.184Z,16.98
2018-06-04T00:20:15.898Z,16.94
2018-06-04T00:22:43.587Z,17.00
2018-06-04T00:25:11.303Z,16.98
2018-06-04T00:27:38.988Z,16.85
2018-06-04T00:30:06.676Z,16.79
2018-06-04T00:32:34.407Z,16.75
2018-06-04T00:35:02.053Z,16.80
2018-06-04T00:37:29.725Z,16.79
2018-06-04T00:39:57.390Z,16.81
2018-06-04T00:42:25.111Z,16.73
2018-06-04T00:44:52.780Z,16.75
2018-06-04T00:47:20.479Z,16.71
2018-06-04T00:49:48.145Z,16.64
2018-06-04T00:52:15.819Z,16.69
2018-06-04T00:54:43.471Z,16.62
2018-06-04T00:57:11.131Z,16.59
2018-06-04T00:59:38.834Z,16.57
2018-06-04T01:02:06.503Z,16.53
2018-06-04T01:04:34.243Z,16.45
2018-06-04T01:07:01.968Z,16.48
2018-06-04T01:09:29.695Z,16.43
2018-06-04T01:11:57.420Z,16.43
2018-06-04T01:14:25.093Z,16.52
2018-06-04T01:16:52.780Z,16.48
2018-06-04T01:19:20.471Z,16.64
2018-06-04T01:21:48.130Z,16.73
2018-06-04T01:24:15.871Z,16.40
2018-06-04T01:26:43.584Z,16.32
2018-06-04T01:29:11.266Z,16.24
2018-06-04T01:31:38.948Z,16.23
2018-06-04T01:34:06.603Z,16.17
2018-06-04T01:36:34.362Z,16.18
2018-06-04T01:39:02.012Z,16.14
2018-06-04T01:41:30.038Z,16.05
2018-06-04T01:43:57.723Z,15.99
2018-06-04T01:46:25.448Z,15.92
2018-06-04T01:48:53.118Z,15.93
2018-06-04T01:51:20.806Z,15.92
2018-06-04T01:53:48.418Z,15.99
2018-06-04T01:56:16.110Z,15.96
2018-06-04T01:58:43.876Z,15.87
2018-06-04T02:01:11.548Z,15.84
2018-06-04T02:03:39.261Z,15.83
2018-06-04T02:06:06.913Z,15.86
2018-06-04T02:08:34.631Z,15.90
2018-06-04T02:11:02.362Z,15.85
2018-06-04T02:13:30.034Z,15.86
2018-06-04T02:15:57.775Z,15.88
2018-06-04T02:18:25.447Z,15.94
2018-06-04T02:20:53.094Z,15.94
2018-06-04T02:23:20.765Z,15.91
2018-06-04T02:25:48.432Z,15.79
2018-06-04T02:28:16.432Z,15.64
2018-06-04T02:30:44.514Z,15.57
2018-06-04T02:33:12.418Z,15.52
2018-06-04T02:35:40.163Z,15.47
2018-06-04T02:38:07.872Z,15.46
2018-06-04T02:40:35.577Z,15.41
2018-06-04T02:43:03.265Z,15.66
2018-06-04T02:45:30.983Z,15.63
2018-06-04T02:47:58.666Z,15.86
2018-06-04T02:50:26.337Z,15.56
2018-06-04T02:52:54.039Z,15.44
2018-06-04T02:55:21.718Z,15.35
2018-06-04T02:57:49.406Z,15.19
2018-06-04T03:00:17.115Z,14.95
2018-06-04T03:02:44.776Z,14.92
2018-06-04T03:05:12.463Z,15.02
2018-06-04T03:07:40.345Z,14.90
2018-06-04T03:10:08.044Z,14.95
2018-06-04T03:12:35.688Z,14.91
2018-06-04T03:15:03.431Z,14.90
2018-06-04T03:17:31.206Z,14.95
2018-06-04T03:19:58.922Z,14.96
2018-06-04T03:22:26.531Z,14.99
2018-06-04T03:24:54.203Z,15.00
2018-06-04T03:27:21.847Z,15.09
2018-06-04T03:29:49.525Z,15.17
2018-06-04T03:32:17.235Z,15.19
2018-06-04T03:34:44.906Z,15.19
2018-06-04T03:37:12.615Z,15.22
2018-06-04T03:39:40.271Z,15.27
2018-06-04T03:42:07.938Z,15.26
2018-06-04T03:44:35.663Z,15.31
2018-06-04T03:47:03.434Z,15.39
2018-06-04T03:49:31.119Z,15.50
2018-06-04T03:51:58.786Z,15.62
2018-06-04T03:54:26.446Z,15.75
2018-06-04T03:56:54.114Z,15.79
2018-06-04T03:59:21.752Z,15.85
2018-06-04T04:01:49.477Z,15.90
2018-06-04T04:04:17.107Z,15.97
2018-06-04T04:06:44.775Z,16.03
2018-06-04T04:09:12.494Z,16.03
2018-06-04T04:11:40.213Z,16.11
2018-06-04T04:14:07.923Z,16.17
2018-06-04T04:16:37.836Z,16.27
2018-06-04T04:19:07.818Z,16.24
2018-06-04T04:21:39.535Z,16.40
2018-06-04T04:24:24.183Z,16.63
2018-06-04T04:26:51.867Z,16.82
2018-06-04T04:29:20.091Z,16.94
2018-06-04T04:31:47.771Z,17.10
2018-06-04T04:34:15.481Z,17.20
2018-06-04T04:36:43.151Z,17.24
2018-06-04T04:39:10.798Z,17.05
2018-06-04T04:41:38.482Z,17.07
2018-06-04T04:44:06.186Z,17.18
2018-06-04T04:46:33.882Z,17.46
2018-06-04T04:49:01.623Z,17.56
2018-06-04T04:51:29.320Z,17.88
2018-06-04T04:53:57.056Z,17.96
2018-06-04T04:56:24.745Z,17.90
2018-06-04T04:58:52.504Z,17.92
2018-06-04T05:01:20.224Z,17.98
2018-06-04T05:03:47.970Z,17.88
2018-06-04T05:06:15.630Z,17.92
2018-06-04T05:08:43.306Z,18.04
2018-06-04T05:11:10.998Z,18.03
2018-06-04T05:13:38.639Z,18.30
2018-06-04T05:16:06.344Z,18.49
2018-06-04T05:18:34.065Z,18.50
2018-06-04T05:21:01.744Z,18.49
2018-06-04T05:23:29.432Z,18.74
2018-06-04T05:25:57.117Z,18.96
2018-06-04T05:28:24.780Z,19.19
2018-06-04T05:30:52.458Z,19.46
2018-06-04T05:33:20.167Z,19.52
2018-06-04T05:35:48.610Z,19.63
2018-06-04T05:38:21.864Z,19.50
2018-06-04T05:41:14.071Z,19.41
2018-06-04T05:43:55.544Z,19.42
2018-06-04T05:46:41.077Z,19.35
2018-06-04T05:55:04.409Z,19.93
2018-06-04T06:00:44.583Z,20.41
2018-06-04T06:04:52.053Z,20.86
2018-06-04T06:07:19.718Z,21.29
2018-06-04T06:09:48.342Z,21.38
2018-06-04T06:12:23.123Z,21.57
2018-06-04T06:15:09.271Z,21.77
2018-06-04T06:17:42.892Z,22.00
2018-06-04T06:25:30.711Z,21.84
2018-06-04T06:28:12.340Z,22.46
2018-06-04T06:31:04.914Z,22.69
2018-06-04T06:34:33.850Z,22.53
2018-06-04T06:37:17.911Z,22.76
2018-06-04T06:40:12.031Z,23.32
2018-06-04T06:42:48.614Z,23.56
2018-06-04T06:45:16.300Z,23.88
2018-06-04T06:47:46.627Z,24.13
2018-06-04T06:50:14.361Z,24.54
2018-06-04T06:52:42.023Z,24.58
2018-06-04T06:55:09.721Z,24.58
2018-06-04T06:57:37.383Z,25.01
2018-06-04T07:00:05.123Z,25.15
2018-06-04T07:02:32.838Z,25.11
2018-06-04T07:05:00.535Z,25.26
2018-06-04T07:07:28.200Z,25.74
2018-06-04T07:09:55.855Z,26.09
2018-06-04T07:12:23.550Z,26.35
2018-06-04T07:14:51.227Z,26.66
2018-06-04T07:17:18.970Z,26.57
2018-06-04T07:19:46.626Z,26.65
2018-06-04T07:22:14.308Z,26.96
2018-06-04T07:24:42.010Z,27.46
2018-06-04T07:27:09.706Z,27.74
2018-06-04T07:29:37.421Z,27.95
2018-06-04T07:32:05.136Z,28.41
2018-06-04T07:34:32.846Z,29.00
2018-06-04T07:37:00.720Z,29.16
2018-06-04T07:39:28.405Z,29.40
2018-06-04T07:41:56.101Z,29.53
2018-06-04T07:44:23.965Z,29.85
2018-06-04T07:46:51.626Z,29.86
2018-06-04T07:49:19.285Z,30.16
2018-06-04T07:51:47.033Z,30.55
2018-06-04T07:54:14.755Z,30.70
2018-06-04T07:56:42.466Z,30.84
2018-06-04T07:59:10.124Z,31.01
2018-06-04T08:01:37.841Z,31.24
2018-06-04T08:04:05.559Z,30.67
2018-06-04T08:06:33.304Z,30.29
2018-06-04T08:09:01.034Z,30.34
2018-06-04T08:11:28.779Z,30.86
2018-06-04T08:13:56.479Z,31.06
2018-06-04T08:16:24.199Z,31.25
2018-06-04T08:18:51.870Z,31.43
2018-06-04T08:21:19.627Z,31.78
2018-06-04T08:23:47.343Z,31.66
2018-06-04T08:26:15.104Z,31.80
2018-06-04T08:28:42.793Z,31.98
2018-06-04T08:31:11.030Z,32.63
2018-06-04T08:33:38.791Z,33.19
2018-06-04T08:36:06.447Z,33.05
2018-06-04T08:38:34.166Z,33.33
2018-06-04T08:41:01.871Z,33.16
2018-06-04T08:43:29.549Z,33.47
2018-06-04T08:45:57.383Z,32.89
2018-06-04T08:48:25.047Z,33.08
2018-06-04T08:50:52.783Z,33.36
2018-06-04T08:53:20.502Z,33.47
2018-06-04T08:55:48.198Z,33.85
2018-06-04T08:58:15.894Z,34.00
2018-06-04T09:00:43.585Z,33.91
2018-06-04T09:03:11.291Z,34.24
2018-06-04T09:05:38.977Z,34.06
2018-06-04T09:08:06.718Z,34.46
2018-06-04T09:10:34.425Z,34.96
2018-06-04T09:13:02.181Z,35.30
2018-06-04T09:15:29.900Z,35.12
2018-06-04T09:17:57.607Z,34.65
2018-06-04T09:20:25.617Z,33.85
2018-06-04T09:22:53.278Z,33.32
2018-06-04T09:25:20.978Z,32.61
2018-06-04T09:27:48.655Z,32.96
2018-06-04T09:30:16.368Z,33.26
2018-06-04T09:32:44.133Z,32.94
2018-06-04T09:35:11.872Z,32.73
2018-06-04T09:37:39.643Z,32.79
2018-06-04T09:40:07.363Z,32.92
2018-06-04T09:42:35.052Z,33.03
2018-06-04T09:45:02.860Z,33.28
2018-06-04T09:47:30.531Z,32.56
2018-06-04T09:49:58.288Z,31.75
2018-06-04T09:52:25.980Z,30.79
2018-06-04T09:54:53.697Z,30.94
2018-06-04T09:57:21.462Z,31.06
2018-06-04T09:59:49.120Z,31.48
2018-06-04T10:02:16.803Z,32.25
2018-06-04T10:04:44.531Z,32.20
2018-06-04T10:07:12.199Z,32.13
2018-06-04T10:09:39.955Z,32.49
2018-06-04T10:12:07.647Z,32.38
2018-06-04T10:14:35.342Z,32.62
2018-06-04T10:17:03.095Z,32.76
2018-06-04T10:19:30.807Z,32.62
2018-06-04T10:21:58.521Z,32.01
2018-06-04T10:24:26.264Z,32.27
2018-06-04T10:26:54.011Z,32.53
2018-06-04T10:29:21.739Z,32.86
2018-06-04T10:31:49.417Z,32.80
2018-06-04T10:34:17.134Z,33.38
2018-06-04T10:36:44.805Z,32.80
2018-06-04T10:39:12.549Z,32.54
2018-06-04T10:41:40.278Z,32.23
2018-06-04T10:44:07.972Z,32.75
2018-06-04T10:46:35.685Z,33.42
2018-06-04T10:49:03.392Z,33.11
2018-06-04T10:51:31.089Z,32.81
2018-06-04T10:53:58.848Z,32.48
2018-06-04T10:56:26.502Z,32.27
2018-06-04T10:58:54.268Z,32.63
2018-06-04T11:01:21.956Z,32.48
2018-06-04T11:03:49.672Z,31.43
2018-06-04T11:06:17.439Z,31.58
2018-06-04T14:17:36.062Z,27.00
2018-06-04T14:20:03.780Z,27.13
2018-06-04T14:22:31.402Z,27.21
2018-06-04T14:24:59.126Z,27.32
2018-06-04T14:27:26.864Z,27.20
2018-06-04T14:29:54.542Z,27.10
2018-06-04T14:32:22.294Z,27.04
2018-06-04T14:34:49.999Z,26.90
2018-06-04T14:37:17.693Z,26.95
2018-06-04T14:39:45.423Z,26.84
2018-06-04T14:42:13.130Z,26.93
2018-06-04T14:44:40.904Z,26.84
2018-06-04T14:47:08.614Z,26.81
2018-06-04T14:49:36.310Z,26.76
2018-06-04T14:52:04.026Z,26.81
2018-06-04T14:54:31.730Z,26.78
2018-06-04T14:56:59.455Z,26.92
2018-06-04T14:59:27.168Z,26.93
2018-06-04T15:01:54.879Z,26.85
2018-06-04T15:04:22.670Z,26.81
2018-06-04T15:06:50.359Z,26.66
2018-06-04T15:09:18.059Z,26.72
2018-06-04T15:11:45.766Z,26.54
2018-06-04T15:14:13.476Z,26.59
2018-06-04T15:16:41.162Z,26.52
2018-06-04T15:19:08.831Z,26.48
2018-06-04T15:21:36.526Z,26.37
2018-06-04T15:24:04.316Z,26.35
2018-06-04T15:26:32.036Z,26.43
2018-06-04T15:28:59.714Z,26.39
2018-06-04T15:31:27.422Z,26.49
2018-06-04T15:33:55.203Z,26.42
2018-06-04T15:36:22.933Z,26.36
2018-06-04T15:38:50.646Z,26.42
2018-06-04T15:41:18.397Z,26.33
2018-06-04T15:43:46.120Z,26.35
2018-06-04T15:46:13.776Z,26.34
2018-06-04T15:48:41.469Z,26.48
2018-06-04T15:51:09.173Z,26.35
2018-06-04T15:53:36.871Z,26.28
2018-06-04T15:56:04.672Z,26.33
2018-06-04T15:58:32.383Z,26.34
2018-06-04T16:01:00.104Z,26.36
2018-06-04T16:03:27.855Z,26.23
2018-06-04T16:05:55.547Z,26.32
2018-06-04T16:08:23.261Z,26.29
2018-06-04T16:10:51.064Z,26.31
2018-06-04T16:13:18.821Z,26.38
2018-06-04T16:15:46.619Z,26.30
2018-06-04T16:18:14.340Z,26.24
2018-06-04T16:20:42.050Z,26.13
2018-06-04T16:23:09.653Z,26.14
2018-06-04T16:25:37.359Z,26.08
2018-06-04T16:28:05.047Z,26.10
2018-06-04T16:30:32.747Z,26.12
2018-06-04T16:33:00.455Z,26.24
2018-06-04T16:35:28.166Z,26.22
2018-06-04T16:37:55.882Z,26.14
2018-06-04T16:40:23.611Z,26.20
2018-06-04T16:42:51.391Z,26.34
2018-06-04T16:45:19.112Z,26.21
2018-06-04T16:47:46.841Z,26.06
2018-06-04T16:50:14.525Z,26.08
2018-06-04T16:52:42.184Z,26.07
2018-06-04T16:55:09.918Z,26.07
2018-06-04T16:57:37.597Z,26.04
2018-06-04T17:00:05.374Z,26.09
2018-06-04T17:02:33.144Z,26.00
2018-06-04T17:05:00.906Z,26.06
2018-06-04T17:07:28.622Z,26.01
2018-06-04T17:09:56.342Z,26.11
2018-06-04T17:12:24.055Z,26.06
2018-06-04T17:14:51.746Z,25.99
2018-06-04T17:17:19.463Z,26.07
2018-06-04T17:19:47.174Z,26.04
2018-06-04T17:22:14.893Z,25.97
2018-06-04T17:24:42.592Z,26.05
2018-06-04T17:27:10.373Z,26.07
2018-06-04T17:29:38.175Z,26.00
2018-06-04T17:32:05.931Z,25.93
2018-06-04T17:34:33.645Z,25.89
2018-06-04T17:37:01.485Z,25.77
2018-06-04T17:39:29.299Z,25.72
2018-06-04T17:41:57.021Z,25.63
2018-06-04T17:44:24.731Z,25.52
2018-06-04T17:46:52.528Z,25.60
2018-06-04T17:49:20.233Z,25.59
2018-06-04T17:51:47.978Z,25.48
2018-06-04T17:54:15.713Z,25.49
2018-06-04T17:56:43.474Z,25.54
2018-06-04T17:59:11.161Z,25.41
2018-06-04T18:01:38.824Z,25.49
2018-06-04T18:04:06.615Z,25.26
2018-06-04T18:06:34.380Z,25.35
2018-06-04T18:09:02.193Z,25.35
2018-06-04T18:11:29.981Z,25.26
2018-06-04T18:13:57.703Z,25.31
2018-06-04T18:16:25.427Z,25.14
2018-06-04T18:18:53.726Z,25.08
2018-06-04T18:21:21.532Z,25.22
2018-06-04T18:23:49.228Z,25.11
2018-06-04T18:26:17.037Z,25.10
2018-06-04T18:28:44.768Z,24.99
2018-06-04T18:31:12.512Z,24.95
2018-06-04T18:33:40.298Z,24.97
2018-06-04T18:36:08.980Z,24.96
2018-06-04T18:38:36.695Z,25.07
2018-06-04T18:41:04.435Z,25.09
2018-06-04T18:43:32.205Z,25.00
2018-06-04T18:45:59.928Z,24.89
2018-06-04T18:48:27.622Z,24.80
2018-06-04T18:50:55.440Z,24.68
2018-06-04T18:53:23.202Z,24.65
2018-06-04T18:55:50.890Z,24.66
2018-06-04T18:58:18.685Z,24.62
2018-06-04T19:00:46.469Z,24.68
2018-06-04T19:03:14.214Z,24.48
2018-06-04T19:05:41.967Z,24.54
2018-06-04T19:08:09.666Z,24.60
2018-06-04T19:10:37.382Z,24.49
2018-06-04T19:13:05.093Z,24.54
2018-06-04T19:15:32.766Z,24.38
2018-06-04T19:18:00.493Z,24.30
2018-06-04T19:20:28.241Z,24.29
2018-06-04T19:22:55.927Z,24.20
2018-06-04T19:25:23.619Z,24.20
2018-06-04T19:27:51.316Z,24.03
2018-06-04T19:30:19.014Z,24.02
2018-06-04T19:32:46.775Z,23.90
2018-06-04T19:35:14.467Z,23.80
2018-06-04T19:37:42.224Z,23.83
2018-06-04T19:40:09.898Z,23.81
2018-06-04T19:42:37.598Z,23.73
2018-06-04T19:45:05.304Z,23.69
2018-06-04T19:47:33.007Z,23.71
2018-06-04T19:50:00.712Z,23.61
2018-06-04T19:52:28.350Z,23.48
2018-06-04T19:54:56.068Z,23.62
2018-06-04T19:57:23.712Z,23.52
2018-06-04T19:59:51.482Z,23.39
2018-06-04T20:02:19.259Z,23.42
2018-06-04T20:04:46.895Z,23.34
2018-06-04T20:07:14.637Z,23.24
2018-06-04T20:09:42.327Z,23.23
2018-06-04T20:12:09.948Z,23.14
2018-06-04T20:14:37.642Z,23.10
2018-06-04T20:17:05.362Z,23.06
2018-06-04T20:19:32.997Z,22.94
2018-06-04T20:22:00.673Z,22.87
2018-06-04T20:24:28.335Z,22.85
2018-06-04T20:26:56.007Z,22.77
2018-06-04T20:29:23.656Z,22.78
2018-06-04T20:31:51.379Z,22.68
2018-06-04T20:34:19.186Z,22.65
2018-06-04T20:36:46.838Z,22.58
2018-06-04T20:39:14.526Z,22.62
2018-06-04T20:41:42.206Z,22.49
2018-06-04T20:44:09.892Z,22.46
2018-06-04T20:46:37.563Z,22.27
2018-06-04T20:49:05.279Z,22.26
2018-06-04T20:51:32.988Z,22.28
2018-06-04T20:54:00.649Z,22.16
2018-06-04T20:56:28.377Z,22.12
2018-06-04T20:58:56.144Z,22.15
2018-06-04T21:01:23.947Z,22.15
2018-06-04T21:03:51.599Z,22.09
2018-06-04T21:06:19.294Z,21.99
2018-06-04T21:08:47.030Z,21.88
2018-06-04T21:11:14.799Z,21.82
2018-06-04T21:13:42.573Z,21.72
2018-06-04T21:16:10.303Z,21.63
2018-06-04T21:18:37.964Z,21.56
2018-06-04T21:21:05.627Z,21.58
2018-06-04T21:23:33.288Z,21.58
2018-06-04T21:26:00.945Z,21.46
2018-06-04T21:28:28.874Z,21.49
2018-06-04T21:30:56.526Z,21.46
2018-06-04T21:33:24.254Z,21.44
2018-06-04T21:35:52.038Z,21.41
2018-06-04T21:38:19.725Z,21.40
2018-06-04T21:40:47.361Z,21.42
2018-06-04T21:43:15.084Z,21.38
2018-06-04T21:45:42.796Z,21.18
2018-06-04T21:48:10.530Z,21.07
2018-06-04T21:50:38.156Z,21.07
2018-06-04T21:53:05.822Z,20.95
2018-06-04T21:55:33.513Z,21.33
2018-06-04T21:58:01.197Z,21.21
2018-06-04T22:00:28.862Z,20.90
2018-06-04T22:02:56.542Z,20.56
2018-06-04T22:05:24.217Z,20.44
2018-06-04T22:07:51.935Z,20.43
2018-06-04T22:10:19.662Z,20.34
2018-06-04T22:12:47.383Z,20.27
2018-06-04T22:15:15.007Z,20.13
2018-06-04T22:17:42.668Z,19.97
2018-06-04T22:20:10.328Z,19.90
2018-06-04T22:22:37.996Z,19.78
2018-06-04T22:25:05.690Z,19.69
2018-06-04T22:27:33.362Z,19.69
2018-06-04T22:30:01.058Z,19.60
2018-06-04T22:32:28.823Z,19.55
2018-06-04T22:34:56.576Z,19.55
2018-06-04T22:37:24.277Z,19.55
2018-06-04T22:39:52.009Z,19.62
2018-06-04T22:42:19.864Z,19.42
2018-06-04T22:44:47.583Z,19.32
2018-06-04T22:47:15.251Z,19.34
2018-06-04T22:49:42.973Z,19.52
2018-06-04T22:52:10.649Z,19.53
2018-06-04T22:54:38.375Z,19.57
2018-06-04T22:57:06.014Z,19.60
2018-06-04T22:59:33.710Z,19.40
2018-06-04T23:02:01.424Z,19.45
2018-06-04T23:04:29.193Z,19.45
2018-06-04T23:06:56.900Z,19.23
2018-06-04T23:09:24.620Z,19.18
2018-06-04T23:11:52.339Z,19.14
2018-06-04T23:14:20.162Z,19.09
2018-06-04T23:16:47.851Z,19.17
2018-06-04T23:19:15.605Z,19.11
2018-06-04T23:21:43.294Z,19.09
2018-06-04T23:24:10.945Z,19.08
2018-06-04T23:26:38.610Z,19.02
2018-06-04T23:29:06.307Z,18.99
2018-06-04T23:31:33.970Z,18.82
2018-06-04T23:34:01.672Z,18.94
2018-06-04T23:36:29.314Z,18.89
2018-06-04T23:38:57.038Z,18.81
2018-06-04T23:41:24.755Z,18.76
2018-06-04T23:43:52.444Z,18.69
2018-06-04T23:46:20.135Z,18.59
2018-06-04T23:48:47.851Z,18.66
2018-06-04T23:51:15.550Z,18.57
2018-06-04T23:53:43.261Z,18.66
2018-06-04T23:56:10.916Z,18.59
2018-06-04T23:58:38.603Z,18.51
